Terminal Aerodrome Forecast
Issued by NWS

Home | Current Version | Previous Version | Text Only | Print | Product List | Glossary On
Versions: 1 2 3 4 5 6 7 8 9 10 11 12 13 14 15
829
FTUS45 KABQ 221133
TAFROW
TAF
KROW 221133Z 2212/2312 VRB04KT P6SM SCT150
     FM221700 16010KT P6SM FEW080
     FM222200 18012KT P6SM VCTS SCT080CB
     FM230200 19008KT P6SM SCT100=

USA.gov is the U.S. government's official web portal to all federal, state and local government web resources and services.